Time;durP1;ratioP1;P1;durP2;ratioP2;P2;SDS_P1;SDS_P2;PMS_P1;PMS_P2;Temp;Humidity;BMP_temperature;BMP_pressure;BME280_temperature;BME280_humidity;BME280_pressure;Samples;Min_cycle;Max_cycle;Signal;HPM_P1;HPM_P2
2022/06/19 00:02:07;;;;;;;23.03;15.23;;;;;;;33.93;48.15;101264.16;4991379;28;20425;-72
2022/06/19 00:04:34;;;;;;;22.50;14.03;;;;;;;34.03;48.62;101259.88;4991484;28;20972;-72
2022/06/19 00:07:00;;;;;;;22.87;15.10;;;;;;;34.14;48.08;101264.97;4991262;28;20453;-71
2022/06/19 00:09:27;;;;;;;20.73;14.57;;;;;;;33.96;48.47;101270.91;4991543;28;20448;-72
2022/06/19 00:11:55;;;;;;;22.70;13.50;;;;;;;34.14;48.31;101256.09;4994491;28;20405;-72
2022/06/19 00:14:22;;;;;;;16.77;11.93;;;;;;;34.25;47.76;101251.50;5027386;28;20921;-71
2022/06/19 00:16:48;;;;;;;26.93;13.27;;;;;;;34.20;48.22;101253.13;4994252;28;20428;-71
2022/06/19 00:19:14;;;;;;;22.60;14.70;;;;;;;34.19;48.02;101256.91;4994477;28;20472;-72
2022/06/19 00:21:40;;;;;;;21.50;15.00;;;;;;;34.20;47.95;101249.63;5012271;28;20408;-72
2022/06/19 00:24:07;;;;;;;18.40;14.47;;;;;;;34.21;47.85;101246.66;4994416;28;20500;-72
2022/06/19 00:26:33;;;;;;;18.67;12.87;;;;;;;34.23;47.97;101238.31;4994702;28;20417;-72
2022/06/19 00:28:59;;;;;;;24.67;15.27;;;;;;;34.00;48.39;101228.88;4994333;28;20940;-72
2022/06/19 00:31:26;;;;;;;22.13;14.57;;;;;;;33.95;48.30;101223.53;4994425;28;20417;-71
2022/06/19 00:33:54;;;;;;;21.70;12.60;;;;;;;33.85;48.76;101226.19;4993594;28;20434;-71
2022/06/19 00:36:21;;;;;;;20.63;15.73;;;;;;;33.87;48.78;101227.53;5012883;28;20491;-70
2022/06/19 00:38:50;;;;;;;22.00;13.80;;;;;;;33.79;49.02;101225.38;5031267;28;20416;-71
2022/06/19 00:41:16;;;;;;;20.73;12.43;;;;;;;33.96;48.70;101221.66;5016133;28;20727;-72
2022/06/19 00:43:59;;;;;;;20.93;13.53;;;;;;;33.92;48.92;101219.47;4998291;28;20816;-71
2022/06/19 00:47:00;;;;;;;24.07;13.60;;;;;;;34.03;48.58;101216.78;5031107;28;20420;-71
2022/06/19 00:49:45;;;;;;;22.97;14.40;;;;;;;33.95;48.46;101210.09;4987748;28;20432;-72
2022/06/19 00:52:16;;;;;;;20.80;12.90;;;;;;;34.08;47.85;101208.72;5030984;28;20964;-72
2022/06/19 00:54:47;;;;;;;18.03;12.53;;;;;;;33.79;48.61;101205.72;4998037;28;20416;-72
2022/06/19 00:57:16;;;;;;;14.83;10.53;;;;;;;33.94;48.23;101206.56;4998040;28;20550;-72
2022/06/19 00:59:48;;;;;;;15.90;11.37;;;;;;;33.87;48.84;101210.56;5030714;28;20448;-72
2022/06/19 01:02:14;;;;;;;18.77;13.60;;;;;;;33.84;48.46;101200.34;5030622;28;20454;-72
2022/06/19 01:04:53;;;;;;;17.93;12.90;;;;;;;34.02;48.43;101207.13;5015749;28;20466;-72
2022/06/19 01:07:22;;;;;;;25.23;12.10;;;;;;;34.03;48.15;101214.91;5030446;28;20472;-72
2022/06/19 01:09:50;;;;;;;18.37;11.47;;;;;;;34.12;48.30;101215.97;5015675;28;20400;-71
2022/06/19 01:12:17;;;;;;;23.77;11.17;;;;;;;34.11;48.45;101208.97;5015357;28;21031;-71
2022/06/19 01:14:45;;;;;;;19.77;11.67;;;;;;;34.18;48.05;101201.41;4997652;28;20412;-72
2022/06/19 01:17:15;;;;;;;15.90;11.10;;;;;;;34.12;48.07;101207.09;4997631;28;20642;-72
2022/06/19 01:19:43;;;;;;;19.10;12.30;;;;;;;34.27;47.61;101201.69;5030283;28;20952;-72
2022/06/19 01:22:36;;;;;;;17.97;12.87;;;;;;;34.29;47.48;101204.91;4997672;28;20416;-72
2022/06/19 01:25:17;;;;;;;17.73;12.67;;;;;;;34.40;47.23;101203.81;4997604;28;20403;-72
2022/06/19 01:30:38;;;;;;;18.50;11.23;;;;;;;34.34;47.95;101202.19;5015079;28;20434;-72
2022/06/19 01:33:09;;;;;;;17.27;10.73;;;;;;;34.26;47.49;101188.50;5030260;28;20420;-72
2022/06/19 01:35:37;;;;;;;15.93;10.30;;;;;;;34.28;47.42;101189.03;4997403;28;20434;-71
2022/06/19 01:38:10;;;;;;;24.13;12.37;;;;;;;34.23;48.00;101192.53;5015008;28;20419;-71
2022/06/19 01:40:39;;;;;;;16.57;10.80;;;;;;;34.22;47.97;101186.34;5014967;28;20404;-70
2022/06/19 01:43:05;;;;;;;20.97;11.13;;;;;;;34.29;47.55;101182.56;5029954;28;20449;-72
2022/06/19 01:45:32;;;;;;;15.83;11.60;;;;;;;34.06;48.40;101179.34;5030012;28;20974;-72
2022/06/19 01:48:00;;;;;;;16.67;11.83;;;;;;;34.20;48.05;101193.09;5014802;28;20536;-72
2022/06/19 01:50:30;;;;;;;15.80;9.90;;;;;;;34.23;47.84;101200.59;5014862;28;20400;-72
2022/06/19 01:53:05;;;;;;;17.23;9.73;;;;;;;34.32;47.62;101195.50;5029853;28;20468;-70
2022/06/19 01:55:32;;;;;;;16.30;10.67;;;;;;;34.21;48.03;101200.09;5014690;28;20455;-70
2022/06/19 01:58:00;;;;;;;20.13;14.00;;;;;;;34.15;48.11;101203.84;4980937;28;20767;-71
2022/06/19 02:00:29;;;;;;;18.00;10.20;;;;;;;34.15;48.12;101207.34;5029690;28;20463;-71
2022/06/19 02:03:26;;;;;;;17.90;11.93;;;;;;;34.08;48.37;101203.34;5013791;28;20535;-70
2022/06/19 02:05:52;;;;;;;22.43;13.00;;;;;;;34.12;48.29;101207.09;5015711;28;20436;-70
2022/06/19 02:08:19;;;;;;;23.83;11.87;;;;;;;34.19;48.23;101210.28;4996970;28;20476;-72
2022/06/19 02:10:47;;;;;;;13.67;10.63;;;;;;;34.04;48.48;101208.44;5029600;28;20428;-72
2022/06/19 02:13:17;;;;;;;17.83;12.00;;;;;;;34.09;48.17;101204.94;5028474;28;20575;-72
2022/06/19 02:15:47;;;;;;;18.30;12.10;;;;;;;34.27;47.67;101198.19;4980823;28;20923;-72
2022/06/19 02:18:37;;;;;;;19.47;12.13;;;;;;;34.41;47.88;101207.31;4996401;28;20952;-72
2022/06/19 02:21:08;;;;;;;26.80;13.20;;;;;;;34.45;47.35;101197.63;4996673;28;20986;-70
2022/06/19 02:23:36;;;;;;;15.90;11.93;;;;;;;34.58;47.26;101210.53;4996643;28;20420;-72
2022/06/19 02:26:06;;;;;;;20.70;11.93;;;;;;;34.58;47.09;101210.53;4996396;28;20483;-72
2022/06/19 02:28:36;;;;;;;18.87;11.90;;;;;;;34.53;47.61;101207.03;4980191;28;20870;-71
2022/06/19 02:31:04;;;;;;;21.03;14.20;;;;;;;34.52;47.43;101213.50;4980869;28;20527;-70
2022/06/19 02:33:33;;;;;;;22.57;16.40;;;;;;;34.46;47.48;101208.13;5012922;28;20424;-70
2022/06/19 02:35:59;;;;;;;23.80;14.83;;;;;;;34.51;47.34;101214.59;4996367;28;20420;-72
2022/06/19 02:38:25;;;;;;;20.40;16.67;;;;;;;34.52;47.32;101224.28;4996172;28;20420;-72
2022/06/19 02:41:19;;;;;;;23.20;15.80;;;;;;;34.48;47.53;101221.31;4996345;28;20507;-72
2022/06/19 02:43:45;;;;;;;28.57;19.70;;;;;;;34.31;47.78;101218.09;5028921;28;20424;-72
2022/06/19 02:46:11;;;;;;;23.73;18.03;;;;;;;34.32;47.86;101219.72;5014082;28;20973;-72
2022/06/19 02:48:37;;;;;;;20.23;16.60;;;;;;;34.26;47.92;101213.53;4996024;28;20448;-70
2022/06/19 02:51:05;;;;;;;24.07;18.40;;;;;;;34.37;47.62;101209.72;4995967;28;20471;-70
2022/06/19 02:53:31;;;;;;;23.90;17.00;;;;;;;34.43;47.60;101202.47;5013601;28;20436;-70
2022/06/19 02:55:58;;;;;;;22.77;16.30;;;;;;;34.52;47.41;101210.81;5028684;28;20502;-70
2022/06/19 02:58:24;;;;;;;26.67;19.70;;;;;;;34.46;47.59;101212.72;4979745;28;20507;-72
2022/06/19 03:00:51;;;;;;;20.73;15.23;;;;;;;34.09;48.41;101215.72;4995217;28;20507;-72
2022/06/19 03:03:29;;;;;;;21.63;15.50;;;;;;;33.95;48.44;101212.78;4995850;28;20933;-72
2022/06/19 03:05:55;;;;;;;28.57;15.37;;;;;;;33.91;48.94;101214.34;5013166;28;20444;-71
2022/06/19 03:08:21;;;;;;;22.00;15.40;;;;;;;33.93;48.68;101223.78;5013288;28;20484;-71
2022/06/19 03:10:47;;;;;;;24.73;15.43;;;;;;;33.97;48.52;101216.00;4995803;28;20824;-71
2022/06/19 03:13:13;;;;;;;19.47;12.80;;;;;;;34.07;48.57;101207.09;4994798;28;20618;-73
2022/06/19 03:15:39;;;;;;;20.80;13.87;;;;;;;33.97;48.39;101209.81;4995233;28;20475;-70
2022/06/19 03:18:06;;;;;;;20.43;14.30;;;;;;;34.20;47.91;101204.66;5028241;28;20428;-69
2022/06/19 03:20:32;;;;;;;24.13;18.00;;;;;;;34.21;47.78;101216.25;4995245;28;20450;-71
2022/06/19 03:22:58;;;;;;;22.00;14.97;;;;;;;34.24;48.27;101215.69;5013171;28;20401;-72
2022/06/19 03:25:24;;;;;;;19.70;13.93;;;;;;;34.05;48.54;101223.50;4995283;28;20436;-72
2022/06/19 03:27:51;;;;;;;26.80;17.00;;;;;;;34.11;48.57;101219.72;4995157;28;20474;-72
2022/06/19 03:30:20;;;;;;;25.00;15.47;;;;;;;34.15;48.41;101228.09;4995301;28;20445;-70
2022/06/19 03:32:46;;;;;;;24.20;16.90;;;;;;;34.25;48.41;101219.97;5028092;28;20428;-71
2022/06/19 03:35:13;;;;;;;23.17;14.20;;;;;;;34.16;48.57;101216.25;4995067;28;20458;-72
2022/06/19 03:37:39;;;;;;;17.17;11.93;;;;;;;34.25;48.04;101217.28;5028039;28;20917;-72
2022/06/19 03:40:07;;;;;;;18.53;14.77;;;;;;;34.18;48.15;101211.38;4994953;28;20448;-71
2022/06/19 03:42:33;;;;;;;19.37;13.47;;;;;;;33.97;48.73;101213.28;5027812;28;20428;-70
2022/06/19 03:44:59;;;;;;;16.13;12.50;;;;;;;33.81;49.32;101215.13;4994953;28;20451;-72
2022/06/19 03:47:26;;;;;;;17.50;13.17;;;;;;;33.86;49.15;101222.41;5027704;28;20456;-72
2022/06/19 03:49:53;;;;;;;25.23;14.90;;;;;;;33.63;49.15;101219.16;4994895;28;20515;-70
2022/06/19 03:52:19;;;;;;;17.23;14.03;;;;;;;33.58;49.67;101219.19;5027652;28;20847;-70
2022/06/19 03:54:45;;;;;;;17.63;14.07;;;;;;;33.47;50.00;101227.50;5027517;28;20780;-70
2022/06/19 03:57:12;;;;;;;26.17;13.03;;;;;;;33.67;49.63;101231.00;5027693;28;20976;-70
2022/06/19 03:59:39;;;;;;;20.33;14.77;;;;;;;33.79;48.96;101227.25;5012255;28;20853;-71
2022/06/19 04:02:05;;;;;;;17.50;13.47;;;;;;;33.65;49.18;101233.19;4994766;28;20431;-70
2022/06/19 04:04:31;;;;;;;21.00;14.50;;;;;;;33.70;49.41;101237.75;5012531;28;20433;-72
2022/06/19 04:06:57;;;;;;;18.83;14.60;;;;;;;33.77;49.27;101241.00;5012269;28;20460;-72
2022/06/19 04:09:24;;;;;;;19.47;16.20;;;;;;;33.88;49.05;101239.94;5012406;28;20427;-72
2022/06/19 04:11:50;;;;;;;19.93;15.77;;;;;;;33.77;48.85;101241.00;5026774;28;20420;-72
2022/06/19 04:14:16;;;;;;;23.97;14.73;;;;;;;33.65;49.12;101237.75;4994628;28;20428;-72
2022/06/19 04:16:45;;;;;;;20.70;15.90;;;;;;;33.63;49.47;101240.69;4994500;28;20460;-72
2022/06/19 04:19:12;;;;;;;20.63;13.77;;;;;;;33.60;49.40;101237.75;5027361;28;20453;-72
2022/06/19 04:21:43;;;;;;;25.20;16.17;;;;;;;33.65;49.39;101240.44;5027387;28;20435;-72
2022/06/19 04:24:12;;;;;;;25.73;14.87;;;;;;;33.32;49.77;101247.06;4994643;28;20487;-72
2022/06/19 04:26:40;;;;;;;17.90;12.00;;;;;;;33.21;50.51;101243.53;4994465;28;20995;-70
2022/06/19 04:29:08;;;;;;;19.00;12.77;;;;;;;33.19;50.54;101234.13;5012130;28;20867;-70
2022/06/19 04:31:34;;;;;;;17.07;12.47;;;;;;;33.31;50.33;101243.56;5027178;28;20512;-72
2022/06/19 04:34:00;;;;;;;22.40;13.60;;;;;;;33.57;49.48;101230.19;4994437;28;20421;-72
2022/06/19 04:36:31;;;;;;;17.30;14.07;;;;;;;33.78;49.03;101236.41;4994312;28;20424;-72
2022/06/19 04:38:58;;;;;;;23.00;13.00;;;;;;;33.81;48.73;101238.56;5027248;28;20431;-71
2022/06/19 04:41:36;;;;;;;15.17;11.53;;;;;;;33.83;48.86;101239.13;5011924;28;20412;-70
2022/06/19 04:44:03;;;;;;;21.73;12.53;;;;;;;33.90;48.58;101234.25;4994355;28;20416;-72
2022/06/19 04:46:29;;;;;;;20.63;14.67;;;;;;;34.07;48.30;101242.06;4978153;28;20424;-72
2022/06/19 04:48:57;;;;;;;17.17;12.40;;;;;;;33.94;48.41;101246.13;4994572;28;21007;-70
2022/06/19 04:51:24;;;;;;;20.47;11.77;;;;;;;33.97;48.23;101239.41;4994179;28;20443;-72
2022/06/19 04:53:53;;;;;;;22.07;12.30;;;;;;;33.89;48.16;101241.53;4994271;28;20417;-72
2022/06/19 04:56:19;;;;;;;19.20;13.53;;;;;;;33.77;48.70;101245.56;4994267;28;20417;-72
2022/06/19 04:58:46;;;;;;;23.73;12.47;;;;;;;33.85;48.46;101250.41;5011881;28;20491;-72
2022/06/19 05:01:19;;;;;;;18.50;12.43;;;;;;;33.65;49.27;101240.44;5010605;28;20495;-72
2022/06/19 05:03:45;;;;;;;20.70;14.10;;;;;;;33.75;49.29;101239.63;4994247;28;20428;-70
2022/06/19 05:06:11;;;;;;;20.47;17.47;;;;;;;33.66;49.21;101244.75;5011552;28;20901;-71
2022/06/19 05:08:37;;;;;;;26.40;18.60;;;;;;;33.59;49.35;101245.00;5011786;28;20444;-71
2022/06/19 05:11:04;;;;;;;28.27;21.47;;;;;;;33.62;49.17;101246.34;4994032;28;20494;-70
2022/06/19 05:13:30;;;;;;;25.47;20.33;;;;;;;33.59;49.32;101238.81;4990554;28;20472;-71
2022/06/19 05:16:12;;;;;;;23.80;19.60;;;;;;;33.63;49.04;101248.75;4991289;28;20483;-72
2022/06/19 05:18:38;;;;;;;29.50;17.70;;;;;;;33.48;49.87;101248.75;4990919;28;20409;-70
2022/06/19 05:21:05;;;;;;;20.90;15.23;;;;;;;33.70;49.17;101253.91;4990663;28;20456;-72
2022/06/19 05:23:34;;;;;;;29.57;18.50;;;;;;;33.90;48.93;101256.59;4993305;28;20437;-72
2022/06/19 05:26:03;;;;;;;24.73;18.27;;;;;;;33.66;48.95;101260.88;4994333;28;20449;-72
2022/06/19 05:28:30;;;;;;;26.93;17.77;;;;;;;33.72;49.24;101253.63;4994272;28;20464;-72
2022/06/19 05:31:01;;;;;;;29.63;19.10;;;;;;;33.86;48.72;101255.50;4996261;28;20441;-70
2022/06/19 05:33:28;;;;;;;22.03;16.10;;;;;;;33.96;48.40;101248.56;4993205;28;20487;-72
2022/06/19 05:35:54;;;;;;;22.37;14.23;;;;;;;34.13;48.07;101251.75;4993034;28;20417;-72
2022/06/19 05:38:21;;;;;;;23.93;14.77;;;;;;;34.20;47.84;101246.94;4993800;28;20421;-71
2022/06/19 05:40:55;;;;;;;19.07;15.50;;;;;;;34.22;47.60;101260.94;4994136;28;20894;-72
2022/06/19 05:43:23;;;;;;;30.77;16.53;;;;;;;34.16;48.00;101254.75;4994112;28;20422;-72
2022/06/19 05:45:55;;;;;;;26.60;16.70;;;;;;;34.23;47.91;101262.53;4994103;28;20425;-72
2022/06/19 05:48:23;;;;;;;25.87;19.87;;;;;;;34.16;47.74;101260.13;4993998;28;20456;-71
2022/06/19 05:51:03;;;;;;;32.40;20.27;;;;;;;34.12;47.75;101263.63;4995221;28;20472;-70
2022/06/19 05:53:32;;;;;;;27.77;20.63;;;;;;;34.00;48.02;101263.88;4994017;28;20416;-71
2022/06/19 05:55:59;;;;;;;32.23;23.07;;;;;;;34.12;48.09;101261.72;4995131;28;20397;-72
2022/06/19 05:58:25;;;;;;;37.43;24.23;;;;;;;34.06;48.17;101267.38;4993828;28;20445;-71
2022/06/19 06:00:52;;;;;;;30.70;20.03;;;;;;;34.11;47.91;101283.53;4993846;28;20422;-70
2022/06/19 06:03:20;;;;;;;29.27;20.70;;;;;;;34.04;47.75;101283.81;4993687;28;20548;-70
2022/06/19 06:05:47;;;;;;;29.40;19.70;;;;;;;33.93;48.50;101284.88;4995002;28;20440;-72
2022/06/19 06:08:14;;;;;;;33.43;23.30;;;;;;;33.90;48.61;101298.84;4993472;28;20863;-71
2022/06/19 06:10:40;;;;;;;26.73;18.00;;;;;;;33.76;48.49;101298.56;4993895;28;20429;-70
2022/06/19 06:13:07;;;;;;;25.77;16.80;;;;;;;33.57;49.19;101306.31;4993418;28;20480;-70
2022/06/19 06:15:34;;;;;;;24.60;18.80;;;;;;;33.53;49.40;101310.63;4993591;28;20922;-70
2022/06/19 06:18:01;;;;;;;31.97;22.27;;;;;;;33.53;49.35;101307.13;4993417;28;20436;-72
2022/06/19 06:20:28;;;;;;;32.77;22.47;;;;;;;33.50;49.55;101313.81;4993385;28;20472;-70
2022/06/19 06:22:54;;;;;;;26.40;20.77;;;;;;;33.51;49.45;101311.94;4993337;28;20409;-70
2022/06/19 06:25:20;;;;;;;21.33;19.20;;;;;;;33.54;49.37;101311.44;4994598;28;20422;-70
2022/06/19 06:27:47;;;;;;;31.57;20.90;;;;;;;33.73;48.81;101317.13;4993215;28;20480;-72
2022/06/19 06:30:14;;;;;;;29.63;18.60;;;;;;;34.00;48.38;101322.28;4994618;28;20456;-72
2022/06/19 06:32:40;;;;;;;33.07;23.00;;;;;;;34.08;47.83;101317.22;4993224;28;20473;-72
2022/06/19 06:35:07;;;;;;;32.93;20.77;;;;;;;34.24;47.51;101323.38;4992274;28;20541;-72
2022/06/19 06:37:33;;;;;;;26.40;19.30;;;;;;;34.31;47.74;101325.81;4993059;28;20422;-70
2022/06/19 06:40:00;;;;;;;25.43;19.07;;;;;;;34.31;47.44;101323.91;4994449;28;20402;-72
2022/06/19 06:42:26;;;;;;;33.57;18.13;;;;;;;34.36;47.31;101317.72;4992804;28;21033;-69
2022/06/19 06:44:52;;;;;;;24.83;18.73;;;;;;;34.23;47.28;101324.47;4992819;28;20429;-70
2022/06/19 06:47:18;;;;;;;29.77;17.37;;;;;;;34.24;47.38;101330.66;4992576;28;20457;-70
2022/06/19 06:49:44;;;;;;;27.20;20.63;;;;;;;34.29;47.75;101328.78;4992867;28;20434;-69
2022/06/19 06:52:10;;;;;;;27.80;17.43;;;;;;;34.29;47.48;101338.75;4992475;28;20429;-69
2022/06/19 06:54:37;;;;;;;23.53;17.63;;;;;;;34.53;47.16;101339.03;4995120;28;20436;-70
2022/06/19 06:57:05;;;;;;;23.23;18.67;;;;;;;34.68;47.11;101341.69;5034952;28;20500;-70
2022/06/19 06:59:31;;;;;;;27.20;19.67;;;;;;;34.79;46.63;101345.19;5001991;28;20440;-69
2022/06/19 07:01:58;;;;;;;21.00;17.60;;;;;;;34.87;46.77;101348.16;4984343;28;20424;-69
2022/06/19 07:04:24;;;;;;;28.10;19.67;;;;;;;34.96;46.00;101343.03;5002681;28;20440;-72
2022/06/19 07:06:50;;;;;;;29.63;22.30;;;;;;;35.02;46.39;101349.22;5007315;28;20511;-71
2022/06/19 07:09:16;;;;;;;29.47;21.40;;;;;;;34.99;46.27;101355.97;5011896;28;20482;-71
2022/06/19 07:11:46;;;;;;;32.23;22.60;;;;;;;34.95;46.67;101355.69;5013297;28;20405;-70
2022/06/19 07:14:13;;;;;;;30.50;21.77;;;;;;;34.83;46.95;101365.94;5014994;28;20471;-71
2022/06/19 07:16:42;;;;;;;35.37;25.33;;;;;;;34.79;47.01;101366.75;5030973;28;20514;-70
2022/06/19 07:19:09;;;;;;;34.17;23.27;;;;;;;34.92;46.96;101366.19;5014919;28;20427;-71
2022/06/19 07:21:36;;;;;;;25.27;21.50;;;;;;;34.93;46.20;101367.84;5015040;28;20802;-71
2022/06/19 07:24:02;;;;;;;29.77;21.97;;;;;;;34.90;45.93;101355.69;5015153;28;20420;-71
2022/06/19 07:26:29;;;;;;;34.10;24.20;;;;;;;34.91;46.49;101361.88;5014995;28;20416;-70
2022/06/19 07:28:56;;;;;;;29.00;22.20;;;;;;;34.90;46.14;101357.56;5009505;28;20479;-72
2022/06/19 07:31:22;;;;;;;33.80;22.43;;;;;;;34.94;46.96;101364.06;5015606;28;20928;-73
2022/06/19 07:33:48;;;;;;;31.90;22.90;;;;;;;35.03;46.72;101365.09;5015128;28;20515;-71
2022/06/19 07:36:18;;;;;;;26.37;19.97;;;;;;;35.04;46.19;101369.41;5015154;28;20459;-70
2022/06/19 07:38:44;;;;;;;25.50;19.87;;;;;;;35.12;45.95;101365.38;5014915;28;20916;-75
2022/06/19 07:41:11;;;;;;;19.20;16.03;;;;;;;35.00;46.59;101362.97;5014927;28;20871;-71
2022/06/19 07:43:37;;;;;;;18.47;15.97;;;;;;;34.74;46.52;101370.25;5015353;28;20419;-69
2022/06/19 07:46:04;;;;;;;23.10;15.87;;;;;;;34.91;46.63;101373.47;5014942;28;20424;-69
2022/06/19 07:51:15;;;;;;;27.43;17.40;;;;;;;35.17;45.90;101376.94;5032381;28;20552;-69
2022/06/19 07:53:41;;;;;;;19.60;15.43;;;;;;;35.20;45.87;101383.66;5014324;28;20866;-69
2022/06/19 07:56:07;;;;;;;23.63;15.83;;;;;;;35.18;45.76;101380.44;5014645;28;20463;-68
2022/06/19 07:58:36;;;;;;;21.83;17.87;;;;;;;35.02;46.01;101385.06;5012117;28;20443;-69
2022/06/19 08:01:04;;;;;;;22.80;14.77;;;;;;;34.93;46.57;101378.63;5014154;28;20434;-70
2022/06/19 08:03:30;;;;;;;19.60;14.33;;;;;;;34.80;46.85;101388.03;5014326;28;20435;-70
2022/06/19 08:05:56;;;;;;;29.23;13.97;;;;;;;34.98;46.81;101383.97;5032181;28;20462;-69
2022/06/19 08:08:27;;;;;;;18.23;12.20;;;;;;;34.83;47.08;101389.38;5002606;28;20463;-69
2022/06/19 08:10:55;;;;;;;23.03;15.10;;;;;;;35.08;46.71;101393.94;4994583;28;20462;-75
2022/06/19 08:13:24;;;;;;;16.93;13.10;;;;;;;35.28;46.29;101394.69;4994163;28;20464;-72
2022/06/19 08:15:56;;;;;;;24.33;14.33;;;;;;;35.41;45.74;101401.38;5009436;28;20444;-72
2022/06/19 08:18:27;;;;;;;25.57;15.63;;;;;;;35.41;45.29;101401.38;5009609;28;20413;-77
2022/06/19 08:20:53;;;;;;;17.40;15.00;;;;;;;35.39;45.77;101397.34;5011441;28;20448;-78
2022/06/19 08:23:22;;;;;;;23.03;15.80;;;;;;;35.41;45.40;101409.47;5011893;28;20412;-76
2022/06/19 08:25:49;;;;;;;18.87;14.27;;;;;;;35.51;45.56;101414.88;5009990;28;20506;-77
2022/06/19 08:28:18;;;;;;;29.87;14.00;;;;;;;35.60;45.44;101412.41;5010361;28;20555;-71
2022/06/19 08:30:44;;;;;;;27.27;14.83;;;;;;;35.57;45.08;101423.75;5012245;28;20444;-77
2022/06/19 08:33:11;;;;;;;19.93;13.20;;;;;;;35.63;44.64;101421.84;5010971;28;20447;-72
2022/06/19 08:35:42;;;;;;;17.83;12.90;;;;;;;35.58;44.85;101432.66;5010129;28;20428;-75
2022/06/19 08:38:16;;;;;;;18.70;12.77;;;;;;;35.63;44.85;101419.94;5010389;28;20421;-72
2022/06/19 08:41:00;;;;;;;21.07;12.40;;;;;;;35.67;44.41;101422.91;5010701;28;20428;-77
2022/06/19 08:43:55;;;;;;;19.13;12.00;;;;;;;35.68;45.17;101432.63;5011066;28;20559;-74
2022/06/19 08:46:24;;;;;;;26.53;13.83;;;;;;;35.76;44.23;101435.53;5011016;28;20432;-76
2022/06/19 08:49:07;;;;;;;18.60;9.80;;;;;;;35.84;44.51;101441.44;5012379;28;20517;-78
2022/06/19 08:51:48;;;;;;;22.50;12.23;;;;;;;35.85;44.39;101440.34;5010767;28;20429;-77
2022/06/19 08:54:28;;;;;;;23.33;12.93;;;;;;;35.80;44.45;101444.72;5009584;28;21063;-78
2022/06/19 08:57:11;;;;;;;17.90;11.73;;;;;;;35.90;44.58;101449.22;5008748;28;20428;-78
2022/06/19 09:00:04;;;;;;;16.13;10.63;;;;;;;35.89;44.37;101454.91;5009186;28;20930;-80
2022/06/19 09:03:02;;;;;;;15.83;11.60;;;;;;;35.91;44.62;101448.19;5013953;28;20408;-77
2022/06/19 09:05:38;;;;;;;20.60;14.03;;;;;;;35.92;44.90;101452.50;5021358;23;20558;-80
2022/06/19 09:08:07;;;;;;;18.87;12.83;;;;;;;35.94;44.63;101450.34;5004345;28;20542;-76
2022/06/19 09:10:41;;;;;;;21.80;12.40;;;;;;;35.89;44.57;101447.63;5004021;28;20421;-81
2022/06/19 09:13:44;;;;;;;20.50;14.33;;;;;;;35.94;45.09;101447.63;4986484;28;20982;-79
2022/06/19 09:16:34;;;;;;;22.90;13.67;;;;;;;35.94;44.70;101436.84;4982221;28;20437;-75
2022/06/19 09:19:30;;;;;;;17.87;12.30;;;;;;;35.91;45.45;101439.22;4994497;28;20929;-74
2022/06/19 09:22:08;;;;;;;25.10;15.00;;;;;;;35.96;45.48;101445.44;4993772;28;20448;-79
2022/06/19 09:24:49;;;;;;;16.90;11.40;;;;;;;35.94;44.97;101434.13;4994089;28;20417;-78
2022/06/19 09:27:18;;;;;;;16.37;11.03;;;;;;;35.96;44.20;101433.84;4994001;28;20562;-77
2022/06/19 09:29:55;;;;;;;14.63;11.80;;;;;;;36.02;44.98;101436.22;4987183;28;20425;-77
2022/06/19 09:32:24;;;;;;;11.33;9.33;;;;;;;36.05;44.34;101441.09;4988815;28;20865;-78
2022/06/19 09:35:19;;;;;;;17.70;10.60;;;;;;;36.11;44.76;101432.97;4984035;28;20441;-79
2022/06/19 09:37:57;;;;;;;17.97;13.00;;;;;;;36.17;44.30;101432.66;4992988;28;20495;-78
2022/06/19 09:40:38;;;;;;;13.97;11.47;;;;;;;36.16;44.23;101431.03;4999937;28;20429;-76
2022/06/19 09:43:20;;;;;;;17.53;10.17;;;;;;;36.22;43.84;101437.22;4991572;28;20426;-79
2022/06/19 09:46:13;;;;;;;14.63;10.23;;;;;;;36.23;44.08;101436.13;4992456;28;20444;-76
2022/06/19 09:48:47;;;;;;;21.40;10.60;;;;;;;36.23;43.59;101436.13;4993015;28;20555;-78
2022/06/19 09:51:16;;;;;;;29.63;14.43;;;;;;;36.18;43.89;101423.47;4990558;28;20456;-76
2022/06/19 09:54:16;;;;;;;19.70;10.87;;;;;;;36.18;44.08;101419.94;4992090;28;20442;-77
2022/06/19 09:57:01;;;;;;;16.30;12.10;;;;;;;36.28;43.77;101428.00;4994865;28;20429;-75
2022/06/19 09:59:39;;;;;;;17.73;8.90;;;;;;;36.23;43.43;101425.31;4993698;28;20445;-78
2022/06/19 10:02:23;;;;;;;13.87;10.13;;;;;;;36.23;42.89;101420.72;4993585;28;20518;-79
2022/06/19 10:04:56;;;;;;;13.10;9.97;;;;;;;36.32;42.02;101419.03;4997802;28;20486;-77
2022/06/19 10:07:31;;;;;;;22.23;10.90;;;;;;;36.37;41.79;101420.88;5013247;28;20476;-76
2022/06/19 10:10:02;;;;;;;16.77;11.73;;;;;;;36.41;42.14;101416.56;5013470;28;20418;-76
2022/06/19 10:12:43;;;;;;;23.10;10.33;;;;;;;36.31;42.36;101416.59;5013468;28;20432;-78
2022/06/19 10:15:35;;;;;;;15.53;9.07;;;;;;;36.40;42.24;101414.97;5010322;28;20484;-76
2022/06/19 10:18:23;;;;;;;14.53;11.00;;;;;;;36.42;41.95;101414.69;4998341;28;20431;-74
2022/06/19 10:22:13;;;;;;;15.30;9.47;;;;;;;36.38;40.99;101414.38;5028543;28;20454;-75
2022/06/19 10:24:20;;;;;;;19.30;10.53;;;;;;;36.31;40.31;101405.81;4999110;28;20409;-75
2022/06/19 10:26:53;;;;;;;12.40;9.20;;;;;;;36.35;41.37;101409.56;4999622;28;20445;-78
2022/06/19 10:29:30;;;;;;;17.20;9.90;;;;;;;36.37;41.26;101410.06;5012889;28;20432;-75
2022/06/19 10:32:18;;;;;;;17.33;9.30;;;;;;;36.37;40.93;101406.56;5010874;28;20892;-75
2022/06/19 10:35:03;;;;;;;21.10;11.47;;;;;;;36.39;41.70;101399.81;5000835;28;20425;-75
2022/06/19 10:38:03;;;;;;;23.63;12.03;;;;;;;36.37;42.05;101393.88;5002347;28;20805;-75
2022/06/19 10:40:40;;;;;;;19.43;10.90;;;;;;;36.32;41.97;101389.31;5001770;28;20441;-79
2022/06/19 10:43:24;;;;;;;19.20;13.40;;;;;;;36.38;41.85;101389.28;5006218;28;20782;-75
2022/06/19 10:46:01;;;;;;;22.83;12.40;;;;;;;36.35;42.02;101387.16;5001678;28;20456;-76
2022/06/19 10:48:36;;;;;;;18.33;12.97;;;;;;;36.35;42.90;101395.25;5000876;28;20460;-81
2022/06/19 10:51:26;;;;;;;19.47;12.53;;;;;;;36.38;42.35;101390.06;5001750;28;21065;-77
2022/06/19 10:54:16;;;;;;;19.10;10.77;;;;;;;36.33;41.43;101388.22;5001721;28;20429;-72
2022/06/19 10:56:48;;;;;;;15.20;10.70;;;;;;;36.33;41.81;101390.91;4994912;28;20436;-72
2022/06/19 10:59:15;;;;;;;15.30;10.80;;;;;;;36.36;41.96;101392.25;5000807;28;20444;-73
2022/06/19 11:05:03;;;;;;;19.50;12.03;;;;;;;36.39;41.99;101399.81;5015590;28;21057;-77
2022/06/19 11:07:30;;;;;;;23.30;11.83;;;;;;;36.34;42.21;101399.84;5002379;28;20464;-74
2022/06/19 11:10:03;;;;;;;17.83;9.43;;;;;;;36.38;41.85;101397.38;5003656;28;20959;-73
2022/06/19 11:12:45;;;;;;;20.87;11.20;;;;;;;36.42;42.27;101393.06;5019752;28;20436;-73
2022/06/19 11:15:18;;;;;;;17.47;10.87;;;;;;;36.45;41.24;101387.88;5017781;28;20478;-74
2022/06/19 11:17:44;;;;;;;14.87;10.00;;;;;;;36.50;41.18;101389.75;5001647;28;20940;-78
2022/06/19 11:20:16;;;;;;;13.43;8.83;;;;;;;36.45;40.81;101384.38;5005004;28;20463;-73
2022/06/19 11:22:48;;;;;;;18.30;10.17;;;;;;;36.46;41.28;101386.81;5004645;28;20487;-78
2022/06/19 11:25:40;;;;;;;13.23;9.77;;;;;;;36.49;41.28;101383.53;5001380;28;20864;-77
2022/06/19 11:28:12;;;;;;;15.80;8.90;;;;;;;36.59;41.05;101388.06;5000836;28;20468;-78
2022/06/19 11:30:48;;;;;;;14.10;10.70;;;;;;;36.62;41.39;101392.06;5002199;28;20452;-78
2022/06/19 11:33:18;;;;;;;16.90;10.27;;;;;;;36.62;41.17;101383.97;5019777;28;20430;-73
2022/06/19 11:35:55;;;;;;;14.20;10.07;;;;;;;36.58;40.83;101384.50;5021179;28;20510;-75
2022/06/19 11:38:39;;;;;;;11.37;8.87;;;;;;;36.69;40.33;101373.63;5013843;28;20425;-73